Time;durP1;ratioP1;P1;durP2;ratioP2;P2;SDS_P1;SDS_P2;PMS_P1;PMS_P2;Temp;Humidity;BMP_temperature;BMP_pressure;BME280_temperature;BME280_humidity;BME280_pressure;Samples;Min_cycle;Max_cycle;Signal;HPM_P1;HPM_P2
2022/03/29 00:02:04;;;;;;;44.58;11.68;;;;;;;9.81;40.28;96086.66;5046141;28;20609;-74
2022/03/29 00:04:32;;;;;;;50.63;12.55;;;;;;;9.76;40.56;96078.66;5046869;28;20530;-74
2022/03/29 00:06:58;;;;;;;41.60;11.32;;;;;;;9.72;39.64;96080.44;5046560;28;20539;-74
2022/03/29 00:09:25;;;;;;;46.92;11.60;;;;;;;9.69;39.51;96081.84;5046221;28;20100;-74
2022/03/29 00:11:51;;;;;;;38.58;11.02;;;;;;;9.65;39.14;96078.97;5047091;28;20091;-74
2022/03/29 00:14:18;;;;;;;51.88;11.68;;;;;;;9.61;39.62;96075.31;5039250;28;20049;-75
2022/03/29 00:16:44;;;;;;;41.00;11.57;;;;;;;9.60;39.34;96070.97;5026952;28;20045;-76
2022/03/29 00:19:11;;;;;;;37.88;10.70;;;;;;;9.58;39.30;96069.69;5025390;28;20559;-74
2022/03/29 00:21:39;;;;;;;47.00;11.77;;;;;;;9.55;39.47;96065.72;5026880;28;20172;-74
2022/03/29 00:24:06;;;;;;;70.35;14.32;;;;;;;9.54;39.51;96063.28;5024236;28;20115;-73
2022/03/29 00:26:32;;;;;;;50.17;11.75;;;;;;;9.47;39.34;96069.19;5026721;28;20049;-74
2022/03/29 00:28:59;;;;;;;44.83;11.55;;;;;;;9.44;39.66;96058.16;5025841;28;20504;-74
2022/03/29 00:31:25;;;;;;;53.20;12.13;;;;;;;9.44;40.00;96060.88;5025356;28;20042;-75
2022/03/29 00:33:52;;;;;;;43.80;11.60;;;;;;;9.44;39.94;96050.78;5026707;28;20103;-74
2022/03/29 00:36:19;;;;;;;49.00;12.40;;;;;;;9.44;40.39;96044.56;5025766;28;20076;-74
2022/03/29 00:38:47;;;;;;;35.78;10.80;;;;;;;9.44;40.36;96050.78;5026307;28;20713;-75
2022/03/29 00:41:14;;;;;;;51.63;12.23;;;;;;;9.42;40.29;96039.47;5025112;28;20140;-74
2022/03/29 00:43:41;;;;;;;51.33;12.75;;;;;;;9.39;40.39;96048.22;5026911;28;20045;-74
2022/03/29 00:46:07;;;;;;;35.03;10.52;;;;;;;9.37;40.36;96039.59;5045292;28;20098;-74
2022/03/29 00:48:34;;;;;;;52.17;13.00;;;;;;;9.34;40.55;96040.22;5046458;28;20053;-74
2022/03/29 00:51:01;;;;;;;38.85;11.18;;;;;;;9.33;40.46;96044.06;5045992;28;20049;-75
2022/03/29 00:53:28;;;;;;;46.50;12.13;;;;;;;9.32;40.83;96042.47;5045569;28;20052;-74
2022/03/29 00:55:55;;;;;;;35.72;10.80;;;;;;;9.31;40.94;96040.88;5046222;28;20103;-74
2022/03/29 00:58:22;;;;;;;53.83;12.30;;;;;;;9.31;40.89;96036.25;5045653;28;20061;-75
2022/03/29 01:00:48;;;;;;;42.00;11.30;;;;;;;9.27;40.95;96035.28;5050531;28;20060;-74
2022/03/29 01:03:16;;;;;;;49.95;12.38;;;;;;;9.23;40.92;96028.88;5049340;28;20114;-76
2022/03/29 01:05:43;;;;;;;53.65;12.52;;;;;;;9.20;40.96;96034.16;5050920;28;20118;-74
2022/03/29 01:08:09;;;;;;;41.13;12.43;;;;;;;9.17;40.99;96029.34;5049080;28;20515;-74
2022/03/29 01:10:36;;;;;;;37.85;11.45;;;;;;;9.13;40.90;96026.44;5050707;28;20048;-75
2022/03/29 01:13:06;;;;;;;36.08;11.73;;;;;;;9.10;41.36;96019.75;5049358;28;20045;-74
2022/03/29 01:15:37;;;;;;;44.30;12.15;;;;;;;9.08;41.76;96029.31;5033488;28;20267;-74
2022/03/29 01:18:05;;;;;;;40.47;12.20;;;;;;;9.07;41.70;96020.38;5029572;28;20053;-74
2022/03/29 01:20:33;;;;;;;48.67;12.25;;;;;;;9.07;41.74;96020.38;5030889;28;20123;-74
2022/03/29 01:23:02;;;;;;;40.70;12.10;;;;;;;9.06;42.60;96017.97;5031405;28;20057;-74
2022/03/29 01:25:35;;;;;;;42.95;11.65;;;;;;;9.05;42.40;96010.94;5029502;28;20041;-74
2022/03/29 01:28:04;;;;;;;39.72;11.85;;;;;;;9.04;42.43;96007.44;5030148;28;20523;-78
2022/03/29 01:30:31;;;;;;;41.95;12.60;;;;;;;9.01;41.90;95999.91;5029323;28;20057;-74
2022/03/29 01:33:00;;;;;;;43.17;12.07;;;;;;;8.99;42.18;95996.72;5030671;28;20053;-75
2022/03/29 01:35:27;;;;;;;40.90;12.10;;;;;;;8.97;42.43;95993.50;5029383;28;20119;-74
2022/03/29 01:37:56;;;;;;;44.03;12.10;;;;;;;8.97;42.47;95990.00;5030104;28;20119;-75
2022/03/29 01:40:25;;;;;;;38.92;11.32;;;;;;;8.96;42.51;95986.47;5029399;28;20443;-74
2022/03/29 01:42:54;;;;;;;36.58;11.70;;;;;;;8.94;43.28;95986.00;5030354;28;20057;-74
2022/03/29 01:45:23;;;;;;;43.08;13.25;;;;;;;8.94;42.88;95983.28;5043896;28;20555;-75
2022/03/29 01:47:50;;;;;;;38.83;11.60;;;;;;;8.97;42.88;95977.22;5049302;28;20061;-74
2022/03/29 01:50:16;;;;;;;46.83;12.50;;;;;;;8.95;42.98;95984.88;5049622;28;20044;-75
2022/03/29 01:52:45;;;;;;;35.28;11.10;;;;;;;8.95;42.96;95979.44;5048678;28;20056;-75
2022/03/29 01:55:13;;;;;;;46.42;12.25;;;;;;;8.95;43.02;95968.59;5047704;28;20057;-74
2022/03/29 01:57:41;;;;;;;30.70;11.02;;;;;;;8.97;42.90;95966.34;5047816;28;20056;-74
2022/03/29 02:02:55;;;;;;;36.35;11.02;;;;;;;8.92;42.85;95958.34;5048596;28;20117;-74
2022/03/29 02:05:22;;;;;;;49.58;12.30;;;;;;;8.95;43.43;95949.59;5046982;28;20068;-73
2022/03/29 02:07:50;;;;;;;44.45;12.07;;;;;;;8.96;43.41;95953.88;5048558;28;20090;-74
2022/03/29 02:10:16;;;;;;;38.42;12.02;;;;;;;8.98;43.61;95945.41;5046139;28;20495;-75
2022/03/29 02:12:45;;;;;;;43.28;13.27;;;;;;;9.03;44.17;95950.69;5048667;28;20148;-74
2022/03/29 02:15:11;;;;;;;46.33;11.57;;;;;;;9.03;43.68;95946.09;5033031;28;20049;-75
2022/03/29 02:17:37;;;;;;;45.97;12.60;;;;;;;9.03;44.44;95942.56;5028041;28;20528;-75
2022/03/29 02:20:06;;;;;;;39.20;11.73;;;;;;;9.01;44.42;95934.72;5027089;28;20595;-74
2022/03/29 02:22:32;;;;;;;45.47;11.85;;;;;;;9.01;45.04;95933.94;5027729;28;20052;-73
2022/03/29 02:24:59;;;;;;;44.35;12.05;;;;;;;8.97;44.63;95936.47;5027847;28;20057;-73
2022/03/29 02:27:25;;;;;;;46.30;12.27;;;;;;;8.98;43.50;95935.38;5029911;28;20567;-74
2022/03/29 02:29:54;;;;;;;36.17;12.10;;;;;;;8.96;43.35;95932.16;5051101;28;20053;-74
2022/03/29 02:32:20;;;;;;;38.85;11.75;;;;;;;8.94;43.64;95931.69;5049280;28;20068;-75
2022/03/29 02:34:47;;;;;;;32.28;11.43;;;;;;;8.90;43.61;95928.00;5051061;28;20515;-75
2022/03/29 02:37:13;;;;;;;28.17;10.30;;;;;;;8.89;43.64;95931.84;5049381;28;20496;-75
2022/03/29 02:39:40;;;;;;;39.92;11.85;;;;;;;8.85;44.24;95925.44;5050672;28;20044;-75
2022/03/29 02:42:07;;;;;;;57.67;14.68;;;;;;;8.81;43.92;95924.47;5049692;28;20053;-76
2022/03/29 02:44:34;;;;;;;60.45;13.57;;;;;;;8.80;44.30;95922.88;5049409;28;20604;-75
2022/03/29 02:47:02;;;;;;;52.05;13.00;;;;;;;8.78;44.54;95925.13;5050281;28;20049;-75
2022/03/29 02:49:28;;;;;;;60.15;12.30;;;;;;;8.78;44.63;95914.25;5049732;28;20048;-75
2022/03/29 02:51:54;;;;;;;51.65;12.48;;;;;;;8.76;44.94;95914.56;5050771;28;20109;-76
2022/03/29 02:54:39;;;;;;;49.17;11.70;;;;;;;8.75;44.11;95906.75;5121913;27;20609;-76
2022/03/29 02:57:06;;;;;;;26.52;9.52;;;;;;;8.74;43.95;95905.16;5107417;28;20050;-76
2022/03/29 02:59:32;;;;;;;35.25;11.20;;;;;;;8.76;44.11;95902.91;5107335;28;20052;-77
2022/03/29 03:01:58;;;;;;;34.47;12.07;;;;;;;8.74;44.30;95894.28;5107385;28;20077;-77
2022/03/29 03:04:25;;;;;;;38.08;12.07;;;;;;;8.74;44.80;95891.56;5106461;28;20048;-76
2022/03/29 03:06:51;;;;;;;39.75;12.40;;;;;;;8.76;44.71;95895.56;5106935;28;20044;-77
2022/03/29 03:09:18;;;;;;;30.48;10.45;;;;;;;8.76;44.70;95892.03;5106527;28;20052;-76
2022/03/29 03:11:46;;;;;;;65.55;14.85;;;;;;;8.76;44.93;95894.75;5106636;28;20044;-76
2022/03/29 03:14:12;;;;;;;23.45;10.57;;;;;;;8.75;44.99;95895.88;5106306;28;20501;-76
2022/03/29 03:16:39;;;;;;;31.50;11.77;;;;;;;8.75;45.05;95895.88;5106261;28;20052;-76
2022/03/29 03:19:05;;;;;;;19.92;9.70;;;;;;;8.76;44.72;95892.03;5106720;28;20047;-76
2022/03/29 03:21:32;;;;;;;23.50;10.13;;;;;;;8.75;44.79;95895.88;5106373;28;20055;-76
2022/03/29 03:23:58;;;;;;;21.92;10.43;;;;;;;8.73;44.78;95889.97;5107126;28;20101;-77
2022/03/29 03:26:25;;;;;;;24.92;11.10;;;;;;;8.72;45.02;95894.63;5106010;28;20460;-76
2022/03/29 03:28:53;;;;;;;45.03;11.63;;;;;;;8.72;44.58;95891.06;5106819;28;20044;-76
2022/03/29 03:31:19;;;;;;;42.25;11.85;;;;;;;8.73;44.66;95895.41;5105963;28;20487;-77
2022/03/29 03:33:45;;;;;;;32.20;10.07;;;;;;;8.70;44.91;95896.03;5106209;28;20580;-77
2022/03/29 03:36:12;;;;;;;79.75;17.55;;;;;;;8.69;45.02;95889.00;5106188;28;20039;-76
2022/03/29 03:38:38;;;;;;;54.33;12.85;;;;;;;8.67;44.71;95892.06;5105893;28;20051;-76
2022/03/29 03:41:05;;;;;;;54.60;11.88;;;;;;;8.65;45.04;95893.47;5106544;28;20044;-76
2022/03/29 03:43:31;;;;;;;125.15;33.47;;;;;;;8.63;45.30;95878.31;5102824;28;20040;-76
2022/03/29 03:45:59;;;;;;;23.95;10.40;;;;;;;8.61;45.08;95883.25;5106995;28;20048;-76
2022/03/29 03:48:26;;;;;;;28.70;10.40;;;;;;;8.59;45.04;95874.63;5105304;28;20450;-77
2022/03/29 03:50:52;;;;;;;74.05;17.33;;;;;;;8.56;45.19;95877.16;5106693;28;20439;-76
2022/03/29 03:53:18;;;;;;;57.55;18.92;;;;;;;8.51;45.88;95869.16;5104618;28;20056;-76
2022/03/29 03:55:45;;;;;;;84.70;21.15;;;;;;;8.48;45.69;95867.91;5106064;28;20044;-76
2022/03/29 03:58:13;;;;;;;48.28;16.08;;;;;;;8.47;45.47;95863.59;5105637;28;20105;-78
2022/03/29 04:00:40;;;;;;;71.70;16.60;;;;;;;8.43;46.16;95865.34;5105879;28;20076;-77
2022/03/29 04:03:09;;;;;;;63.83;15.48;;;;;;;8.41;45.89;95862.16;5105911;28;20047;-76
2022/03/29 04:05:35;;;;;;;97.97;21.75;;;;;;;8.38;46.17;95856.53;5093733;28;20499;-76
2022/03/29 04:08:02;;;;;;;36.45;14.27;;;;;;;8.36;46.40;95856.88;5092395;28;20051;-76
2022/03/29 04:10:28;;;;;;;53.72;16.10;;;;;;;8.29;46.49;95853.78;5091837;28;20059;-77
2022/03/29 04:12:55;;;;;;;65.72;19.90;;;;;;;8.27;46.35;95850.59;5092500;28;20408;-77
2022/03/29 04:15:21;;;;;;;39.65;10.40;;;;;;;8.23;46.51;95852.31;5091292;28;21488;-76
2022/03/29 04:17:48;;;;;;;37.70;11.40;;;;;;;8.20;46.41;95850.25;5092172;28;20048;-76
2022/03/29 04:20:15;;;;;;;44.63;13.63;;;;;;;8.17;47.23;95848.97;5091579;28;20521;-76
2022/03/29 04:22:42;;;;;;;76.38;14.77;;;;;;;8.14;47.17;95843.34;5091878;28;20055;-76
2022/03/29 04:25:10;;;;;;;33.75;9.95;;;;;;;8.11;47.31;95840.16;5091803;28;20117;-76
2022/03/29 04:27:36;;;;;;;47.03;13.95;;;;;;;8.08;47.27;95840.00;5091372;28;20055;-76
2022/03/29 04:30:04;;;;;;;178.40;46.13;;;;;;;8.07;47.31;95841.91;5091611;28;20048;-75
2022/03/29 04:32:30;;;;;;;28.23;10.45;;;;;;;8.07;47.05;95841.91;5091464;28;20051;-77
2022/03/29 04:34:57;;;;;;;34.15;9.60;;;;;;;8.04;47.13;95831.69;5092206;28;20670;-76
2022/03/29 04:37:25;;;;;;;26.35;10.65;;;;;;;8.02;47.21;95833.13;5090639;28;20048;-76
2022/03/29 04:39:51;;;;;;;35.70;12.30;;;;;;;7.98;47.37;95827.50;5092103;28;20048;-76
2022/03/29 04:42:19;;;;;;;49.38;11.80;;;;;;;7.94;47.46;95821.13;5090931;28;20093;-75
2022/03/29 04:44:46;;;;;;;38.92;11.93;;;;;;;7.93;47.50;95816.00;5091581;28;20044;-76
2022/03/29 04:47:12;;;;;;;33.95;10.25;;;;;;;7.94;47.52;95821.13;5091377;28;20102;-76
2022/03/29 04:49:39;;;;;;;84.60;17.52;;;;;;;7.94;47.44;95823.84;5091164;28;20048;-78
2022/03/29 04:52:07;;;;;;;68.97;17.27;;;;;;;7.97;47.83;95812.38;5091415;28;20047;-76
2022/03/29 04:54:34;;;;;;;53.30;12.05;;;;;;;7.99;48.10;95815.56;5090740;28;20093;-75
2022/03/29 04:57:02;;;;;;;48.70;12.32;;;;;;;8.00;48.24;95817.16;5091748;28;20048;-76
2022/03/29 04:59:28;;;;;;;38.58;10.38;;;;;;;8.04;47.85;95809.22;5110648;28;20051;-77
2022/03/29 05:01:55;;;;;;;32.92;11.88;;;;;;;8.06;47.54;95807.78;5111908;28;20100;-77
2022/03/29 05:04:21;;;;;;;56.67;17.60;;;;;;;8.09;47.64;95801.72;5110589;28;20047;-78
2022/03/29 05:06:48;;;;;;;47.38;11.52;;;;;;;8.10;47.44;95805.25;5111534;28;20040;-77
2022/03/29 05:09:14;;;;;;;60.45;14.93;;;;;;;8.11;47.51;95804.91;5111015;28;20051;-78
2022/03/29 05:11:42;;;;;;;44.35;10.65;;;;;;;8.11;47.59;95804.13;5111136;28;20051;-77
2022/03/29 05:14:08;;;;;;;31.65;10.75;;;;;;;8.14;47.45;95799.97;5111790;27;20048;-77
2022/03/29 05:16:35;;;;;;;38.53;11.52;;;;;;;8.16;47.38;95811.31;5109831;28;20047;-77
2022/03/29 05:19:01;;;;;;;64.13;14.98;;;;;;;8.19;47.78;95805.25;5111715;28;20497;-77
2022/03/29 05:21:30;;;;;;;43.17;16.40;;;;;;;8.22;48.27;95807.34;5110188;28;20039;-78
2022/03/29 05:23:56;;;;;;;48.35;14.10;;;;;;;8.28;48.09;95808.78;5111611;28;20054;-78
2022/03/29 05:26:24;;;;;;;25.67;10.02;;;;;;;8.31;47.50;95805.44;5110016;28;20036;-79
2022/03/29 05:28:51;;;;;;;50.03;11.32;;;;;;;8.34;47.73;95807.50;5111052;28;20054;-78
2022/03/29 05:31:18;;;;;;;42.58;11.75;;;;;;;8.37;48.00;95812.34;5110295;28;20105;-78
2022/03/29 05:33:44;;;;;;;44.78;11.13;;;;;;;8.41;47.71;95816.03;5110875;28;20097;-78
2022/03/29 05:36:12;;;;;;;45.17;11.52;;;;;;;8.44;47.98;95807.22;5110626;28;20036;-78
2022/03/29 05:38:38;;;;;;;42.20;10.95;;;;;;;8.42;48.42;95804.06;5110441;28;20121;-78
2022/03/29 05:41:05;;;;;;;26.95;10.90;;;;;;;8.46;48.46;95805.03;5111034;28;20051;-78
2022/03/29 05:43:32;;;;;;;28.40;11.13;;;;;;;8.51;47.49;95806.75;5111413;27;20054;-78
2022/03/29 05:48:53;;;;;;;26.05;10.70;;;;;;;8.58;47.99;95802.47;5110371;28;20197;-79
2022/03/29 05:51:20;;;;;;;36.15;12.20;;;;;;;8.59;47.77;95798.63;5110073;28;20502;-78
2022/03/29 05:53:46;;;;;;;26.23;10.65;;;;;;;8.60;47.63;95797.50;5110338;28;20502;-78
2022/03/29 05:56:13;;;;;;;45.88;12.77;;;;;;;8.64;47.26;95792.25;5109777;28;20097;-78
2022/03/29 05:58:39;;;;;;;42.25;10.68;;;;;;;8.62;47.71;95787.16;5110852;28;20047;-79
2022/03/29 06:01:07;;;;;;;38.10;13.23;;;;;;;8.62;47.37;95792.56;5109058;28;20043;-78
2022/03/29 06:03:34;;;;;;;44.67;11.38;;;;;;;8.65;47.24;95791.13;5110802;28;20055;-78
2022/03/29 06:06:00;;;;;;;38.00;11.98;;;;;;;8.68;47.07;95784.28;5109623;28;20040;-78
2022/03/29 06:08:26;;;;;;;25.80;10.60;;;;;;;8.70;47.13;95790.16;5110367;28;20039;-77
2022/03/29 06:10:53;;;;;;;46.83;12.25;;;;;;;8.73;46.92;95787.63;5109594;28;20514;-78
2022/03/29 06:13:20;;;;;;;82.30;24.42;;;;;;;8.79;47.17;95793.69;5110164;27;20071;-78
2022/03/29 06:15:46;;;;;;;45.08;11.98;;;;;;;8.85;47.27;95795.13;5109914;28;20040;-77
2022/03/29 06:18:14;;;;;;;67.05;14.32;;;;;;;8.91;46.68;95787.59;5109549;28;20093;-79
2022/03/29 06:20:41;;;;;;;81.38;31.70;;;;;;;8.95;46.93;95797.50;5110068;28;20060;-78
2022/03/29 06:23:07;;;;;;;53.90;11.82;;;;;;;8.98;46.86;95799.59;5108960;28;20458;-77
2022/03/29 06:25:35;;;;;;;32.40;11.30;;;;;;;9.05;46.94;95799.09;5110312;28;20501;-78
2022/03/29 06:28:02;;;;;;;32.60;10.73;;;;;;;9.15;46.69;95793.34;5108507;28;20047;-77
2022/03/29 06:30:28;;;;;;;29.88;12.60;;;;;;;9.15;46.39;95799.56;5110337;28;20097;-78
2022/03/29 06:32:55;;;;;;;77.60;19.55;;;;;;;9.22;46.62;95801.00;5109387;28;20112;-78
2022/03/29 06:35:24;;;;;;;79.95;22.17;;;;;;;9.28;46.31;95796.97;5109791;28;20047;-78
2022/03/29 06:37:51;;;;;;;64.85;23.17;;;;;;;9.32;45.61;95789.78;5109594;28;20051;-76
2022/03/29 06:40:18;;;;;;;31.42;12.05;;;;;;;9.37;46.13;95790.41;5109148;28;20100;-78
2022/03/29 06:42:44;;;;;;;24.67;11.20;;;;;;;9.41;46.07;95787.84;5110522;28;20489;-78
2022/03/29 06:45:11;;;;;;;34.50;11.65;;;;;;;9.51;45.94;95795.66;5108800;28;20048;-78
2022/03/29 06:47:38;;;;;;;29.75;11.60;;;;;;;9.57;45.83;95794.34;5110063;28;20044;-78
2022/03/29 06:50:06;;;;;;;50.58;10.95;;;;;;;9.70;46.11;95797.19;5108736;28;20055;-78
2022/03/29 06:52:36;;;;;;;73.25;21.15;;;;;;;9.84;45.58;95795.84;5110332;28;20067;-78
2022/03/29 06:55:03;;;;;;;33.80;11.85;;;;;;;10.03;47.09;95784.56;5108570;28;20044;-78
2022/03/29 06:57:29;;;;;;;30.27;11.68;;;;;;;10.18;46.37;95781.28;5109956;28;20414;-79
2022/03/29 06:59:56;;;;;;;30.48;10.82;;;;;;;10.28;45.55;95784.75;5109381;28;20048;-78
2022/03/29 07:02:24;;;;;;;106.97;29.40;;;;;;;10.42;44.65;95783.38;5109527;28;20748;-78
2022/03/29 07:04:50;;;;;;;41.22;12.45;;;;;;;10.55;44.51;95783.50;5109903;28;20078;-78
2022/03/29 07:07:17;;;;;;;28.20;11.68;;;;;;;10.67;43.40;95784.34;5108980;28;20609;-78
2022/03/29 07:12:30;;;;;;;36.92;12.25;;;;;;;10.96;43.17;95782.66;5109023;28;20715;-78
2022/03/29 07:14:57;;;;;;;32.35;11.57;;;;;;;11.09;43.12;95781.59;5110043;28;20089;-78
2022/03/29 07:17:23;;;;;;;45.35;12.30;;;;;;;11.28;43.04;95781.09;5108712;28;20049;-78
2022/03/29 07:19:50;;;;;;;60.00;19.15;;;;;;;11.48;43.31;95776.69;5109679;28;20055;-79
2022/03/29 07:22:18;;;;;;;52.33;15.90;;;;;;;11.69;41.38;95782.06;5108582;28;20043;-78
2022/03/29 07:24:45;;;;;;;42.55;11.90;;;;;;;11.54;40.77;95786.28;5109565;28;20048;-79
2022/03/29 07:27:12;;;;;;;44.28;14.45;;;;;;;11.58;40.90;95781.72;5108984;28;20050;-80
2022/03/29 07:29:39;;;;;;;47.55;11.48;;;;;;;11.61;40.54;95775.59;5108988;28;20047;-79
2022/03/29 07:32:06;;;;;;;40.80;14.18;;;;;;;11.73;40.69;95783.78;5109478;28;20139;-79
2022/03/29 07:34:35;;;;;;;48.35;14.65;;;;;;;12.31;40.08;95782.91;5108865;28;20673;-78
2022/03/29 07:37:02;;;;;;;64.13;15.30;;;;;;;12.35;39.06;95778.38;5109628;28;20116;-75
2022/03/29 07:39:28;;;;;;;28.35;10.52;;;;;;;12.27;38.89;95778.16;5109203;28;20043;-77
2022/03/29 07:41:56;;;;;;;45.63;12.43;;;;;;;12.41;38.24;95774.25;5112967;28;20689;-79
2022/03/29 07:44:23;;;;;;;77.80;19.80;;;;;;;13.02;37.63;95772.16;5111495;28;20100;-77
2022/03/29 07:46:50;;;;;;;74.15;22.23;;;;;;;13.26;36.78;95773.25;5113331;28;20052;-78
2022/03/29 07:49:17;;;;;;;56.78;17.55;;;;;;;13.46;35.88;95768.69;5112371;28;20050;-77
2022/03/29 07:51:43;;;;;;;59.80;19.42;;;;;;;13.59;35.35;95775.69;5112666;28;20047;-78
2022/03/29 07:54:10;;;;;;;95.78;27.58;;;;;;;13.79;34.77;95769.19;5112440;28;20623;-78
2022/03/29 07:56:36;;;;;;;32.20;11.18;;;;;;;14.14;34.98;95768.44;5112401;28;20048;-78
2022/03/29 07:59:04;;;;;;;35.72;11.27;;;;;;;14.27;34.01;95780.91;5112900;28;20124;-78
2022/03/29 08:01:30;;;;;;;27.65;10.80;;;;;;;14.42;34.42;95764.78;5112078;28;20055;-78
2022/03/29 08:03:57;;;;;;;34.13;12.25;;;;;;;14.78;33.47;95769.94;5113308;28;20048;-78
2022/03/29 08:06:24;;;;;;;36.00;11.43;;;;;;;14.61;33.48;95765.63;5111571;28;20105;-78
2022/03/29 08:08:53;;;;;;;33.28;11.77;;;;;;;14.56;33.95;95765.13;5112873;28;20043;-78
2022/03/29 08:11:20;;;;;;;57.53;16.52;;;;;;;14.69;33.24;95768.56;5111981;28;20526;-77
2022/03/29 08:13:47;;;;;;;50.40;11.65;;;;;;;14.77;33.68;95771.09;5113166;27;20392;-78
2022/03/29 08:16:15;;;;;;;52.33;11.40;;;;;;;14.74;33.82;95760.06;5112177;28;20134;-78
2022/03/29 08:18:41;;;;;;;32.05;13.02;;;;;;;14.78;33.33;95767.19;5111559;28;20162;-79
2022/03/29 08:23:49;;;;;;;31.90;11.98;;;;;;;14.82;33.37;95762.56;5110456;28;20035;-79
2022/03/29 08:26:15;;;;;;;32.70;12.13;;;;;;;14.95;33.20;95765.19;5112467;28;20051;-78
2022/03/29 08:28:42;;;;;;;29.85;12.02;;;;;;;14.81;33.24;95766.47;5111454;28;20052;-79
2022/03/29 08:31:08;;;;;;;34.65;12.98;;;;;;;14.91;32.79;95758.84;5111797;28;20108;-79
2022/03/29 08:33:36;;;;;;;32.92;12.10;;;;;;;15.03;33.70;95744.97;5111685;28;20047;-78
2022/03/29 08:36:03;;;;;;;34.90;13.05;;;;;;;15.21;32.06;95743.38;5111470;28;20039;-77
2022/03/29 08:38:29;;;;;;;28.45;11.50;;;;;;;15.16;33.03;95749.16;5112123;28;20067;-77
2022/03/29 08:40:57;;;;;;;31.02;12.63;;;;;;;15.32;31.82;95738.91;5111588;28;20058;-79
2022/03/29 08:43:26;;;;;;;30.13;12.13;;;;;;;15.80;32.10;95733.09;5112165;27;20664;-78
2022/03/29 08:45:53;;;;;;;39.63;11.85;;;;;;;15.73;32.43;95739.28;5111407;28;20040;-78
2022/03/29 08:48:23;;;;;;;33.38;12.70;;;;;;;16.16;31.25;95737.22;5111665;28;20047;-78
2022/03/29 08:50:52;;;;;;;34.78;11.30;;;;;;;16.57;31.28;95731.94;5111366;28;20277;-78
2022/03/29 08:53:19;;;;;;;33.13;12.07;;;;;;;16.64;30.30;95734.78;5110993;28;20414;-78
2022/03/29 08:55:46;;;;;;;36.17;12.65;;;;;;;16.62;29.97;95735.16;5111326;28;20085;-78
2022/03/29 08:58:13;;;;;;;40.55;12.32;;;;;;;16.50;30.01;95742.84;5110949;28;20068;-79
2022/03/29 09:00:39;;;;;;;33.10;11.85;;;;;;;16.35;30.70;95742.63;5111739;28;20056;-78
2022/03/29 09:03:07;;;;;;;36.03;12.68;;;;;;;16.11;31.32;95743.03;5110563;28;20627;-78
2022/03/29 09:05:34;;;;;;;31.77;11.95;;;;;;;16.04;30.60;95740.16;5111897;28;20506;-81
2022/03/29 09:08:08;;;;;;;41.65;12.48;;;;;;;16.23;31.10;95742.81;5110710;28;20131;-79
2022/03/29 09:10:45;;;;;;;26.45;12.13;;;;;;;16.07;29.80;95739.41;5111852;28;20505;-77
2022/03/29 09:13:20;;;;;;;25.52;11.75;;;;;;;16.57;29.90;95727.22;5110701;27;20051;-77
2022/03/29 09:15:47;;;;;;;29.35;12.95;;;;;;;16.92;29.08;95731.66;5111199;28;20059;-78
2022/03/29 09:18:13;;;;;;;32.45;12.88;;;;;;;16.92;28.67;95729.69;5110571;28;20040;-78
2022/03/29 09:20:40;;;;;;;33.40;13.50;;;;;;;17.14;27.53;95732.69;5110952;28;20044;-78
2022/03/29 09:23:13;;;;;;;34.00;12.45;;;;;;;17.29;27.65;95717.94;5110702;28;20051;-78
2022/03/29 09:25:46;;;;;;;;;;;;;;;17.33;27.50;95716.00;5110902;28;20556;-78
2022/03/29 09:28:14;;;;;;;29.52;12.63;;;;;;;16.94;27.62;95719.09;5110912;28;20013;-79
2022/03/29 09:30:44;;;;;;;32.80;13.18;;;;;;;17.04;28.26;95722.34;5110259;28;20069;-78
2022/03/29 09:33:12;;;;;;;29.58;12.77;;;;;;;17.29;27.90;95706.91;5110844;28;20043;-79
2022/03/29 09:35:53;;;;;;;31.85;12.48;;;;;;;18.01;26.96;95711.16;5110250;28;20043;-78
2022/03/29 09:38:24;;;;;;;31.38;13.30;;;;;;;18.10;26.54;95699.81;5110306;28;20051;-78
2022/03/29 09:40:51;;;;;;;28.13;11.82;;;;;;;18.25;27.37;95695.97;5110947;28;20051;-78
2022/03/29 09:43:17;;;;;;;40.50;12.77;;;;;;;18.72;26.98;95694.31;5110185;27;20043;-78
2022/03/29 09:45:50;;;;;;;28.60;12.65;;;;;;;18.50;25.68;95687.88;5111080;28;20048;-78
2022/03/29 09:48:25;;;;;;;24.75;12.27;;;;;;;18.09;26.03;95696.25;5109498;28;20101;-78
2022/03/29 09:50:55;;;;;;;30.73;12.15;;;;;;;17.91;26.79;95698.88;5110923;28;20047;-78
2022/03/29 09:53:41;;;;;;;30.08;12.93;;;;;;;17.26;27.35;95696.66;5109445;28;20075;-78
2022/03/29 09:56:10;;;;;;;41.05;13.68;;;;;;;17.26;28.27;95690.38;5109482;28;20127;-79
2022/03/29 09:58:36;;;;;;;33.50;11.65;;;;;;;17.54;28.60;95690.66;5110827;28;20089;-79
2022/03/29 10:01:04;;;;;;;57.40;15.57;;;;;;;17.90;28.08;95679.97;5109520;28;20055;-77
2022/03/29 10:03:33;;;;;;;56.90;20.38;;;;;;;18.22;27.25;95680.22;5110453;28;20080;-78
2022/03/29 10:06:04;;;;;;;27.35;12.90;;;;;;;17.86;27.80;95668.94;5109613;28;20075;-78
2022/03/29 10:11:21;;;;;;;26.55;12.80;;;;;;;17.78;27.22;95667.28;5109461;28;20132;-78
2022/03/29 10:13:48;;;;;;;36.42;14.27;;;;;;;17.78;27.37;95656.28;5125568;27;20077;-78
2022/03/29 10:16:17;;;;;;;29.70;12.85;;;;;;;18.29;28.34;95651.91;5130271;27;20043;-78
2022/03/29 10:18:45;;;;;;;34.05;13.70;;;;;;;18.69;27.30;95648.22;5130082;27;20514;-78
2022/03/29 10:21:13;;;;;;;36.10;13.07;;;;;;;19.00;27.42;95642.03;5130535;27;20079;-78
2022/03/29 10:23:40;;;;;;;31.60;14.13;;;;;;;19.26;26.33;95640.09;5129598;27;20049;-78
2022/03/29 10:26:07;;;;;;;28.58;13.00;;;;;;;19.06;25.52;95645.19;5130665;27;20397;-76
2022/03/29 10:28:36;;;;;;;31.58;14.95;;;;;;;18.45;26.32;95627.59;5129815;27;20055;-77
2022/03/29 10:31:03;;;;;;;29.42;13.95;;;;;;;18.49;26.74;95629.19;5130472;27;20047;-76
2022/03/29 10:33:33;;;;;;;31.33;13.80;;;;;;;18.58;26.40;95630.78;5129707;27;20051;-78
2022/03/29 10:36:09;;;;;;;32.28;13.98;;;;;;;18.66;27.40;95624.13;5130393;27;20060;-77
2022/03/29 10:38:58;;;;;;;25.85;13.10;;;;;;;19.10;26.78;95620.34;5130019;27;20126;-76
2022/03/29 10:41:51;;;;;;;31.48;14.15;;;;;;;19.51;26.80;95618.84;5129035;27;20108;-78
2022/03/29 10:44:19;;;;;;;25.90;12.45;;;;;;;19.56;26.60;95614.88;5129176;27;20074;-78
2022/03/29 10:46:48;;;;;;;22.15;11.88;;;;;;;19.44;26.52;95613.31;5129906;27;20039;-77
2022/03/29 10:49:20;;;;;;;33.53;13.77;;;;;;;19.46;26.24;95610.16;5129518;27;20047;-76
2022/03/29 10:51:47;;;;;;;36.47;13.95;;;;;;;19.36;26.16;95608.97;5130347;27;20130;-76
2022/03/29 10:54:29;;;;;;;31.02;14.00;;;;;;;18.49;26.48;95615.41;5129988;28;20095;-77
2022/03/29 10:56:57;;;;;;;27.88;13.38;;;;;;;18.63;26.67;95611.09;5130508;27;20043;-79
2022/03/29 10:59:25;;;;;;;25.08;12.57;;;;;;;18.52;26.99;95606.34;5129161;28;20058;-77
2022/03/29 11:02:08;;;;;;;47.67;13.85;;;;;;;18.52;27.26;95616.59;5130513;28;20039;-78
2022/03/29 11:04:34;;;;;;;27.50;12.03;;;;;;;18.24;27.53;95607.00;5129746;28;20047;-78
2022/03/29 11:07:14;;;;;;;31.58;13.95;;;;;;;18.08;28.09;95606.53;5129774;27;20059;-77
2022/03/29 11:09:46;;;;;;;37.22;12.60;;;;;;;18.19;29.13;95599.09;5130050;28;20077;-77
2022/03/29 11:12:39;;;;;;;50.50;13.82;;;;;;;18.31;27.52;95600.72;5126060;27;20047;-78
2022/03/29 11:15:45;;;;;;;29.38;13.75;;;;;;;18.04;27.07;95602.16;5111448;28;20654;-77
2022/03/29 11:18:39;;;;;;;25.60;12.55;;;;;;;17.76;27.95;95614.56;5112749;28;20040;-77
2022/03/29 11:21:06;;;;;;;32.92;13.38;;;;;;;17.50;28.29;95606.47;5112711;28;20449;-78
2022/03/29 11:23:34;;;;;;;28.08;12.55;;;;;;;17.39;27.83;95607.16;5113963;28;20047;-79
2022/03/29 11:26:05;;;;;;;32.30;13.73;;;;;;;17.60;27.88;95600.25;5112576;28;20738;-77
2022/03/29 11:28:32;;;;;;;23.02;11.40;;;;;;;17.65;28.48;95599.91;5113791;28;20199;-77
2022/03/29 11:30:59;;;;;;;27.75;12.55;;;;;;;17.72;27.07;95606.28;5112631;28;20131;-79
2022/03/29 11:33:32;;;;;;;34.05;13.32;;;;;;;17.71;28.22;95581.84;5113003;28;20502;-77
2022/03/29 11:36:01;;;;;;;28.70;12.07;;;;;;;17.85;27.62;95584.72;5112985;28;20139;-77
2022/03/29 11:38:31;;;;;;;30.02;13.68;;;;;;;17.72;27.22;95594.44;5113095;28;20047;-78
2022/03/29 11:40:58;;;;;;;25.92;11.77;;;;;;;17.75;27.27;95582.72;5113019;28;20644;-79